Terminal Aerodrome Forecast
Issued by NWS

Home | Current Version | Previous Version | Text Only | Print | Product List | Glossary On
Versions: 1 2 3 4 5 6 7 8 9 10 11 12 13 14 15 16 17 18 19 20 21 22 23 24 25 26 27 28 29 30 31
000
FTUS42 KCAE 020300 AAB
TAFOGB
TAF AMD
KOGB 020310Z 0203/0224 VRB03KT 3SM BR OVC006
     FM020800 VRB03KT 1SM BR OVC003
     FM021500 28006KT 5SM BR OVC010
     FM021700 29006KT P6SM OVC015=

USA.gov is the U.S. government's official web portal to all federal, state and local government web resources and services.